createdAt,value
2019-04-20T00:01:12.613Z,95640.31
2019-04-20T00:03:43.254Z,95642.73
2019-04-20T00:06:11.254Z,95638.27
2019-04-20T00:08:42.732Z,95644.02
2019-04-20T00:11:17.881Z,95647.00
2019-04-20T00:13:50.370Z,95646.20
2019-04-20T00:16:12.638Z,95652.67
2019-04-20T00:18:48.099Z,95658.81
2019-04-20T00:21:30.837Z,95660.70
2019-04-20T00:24:07.485Z,95660.84
2019-04-20T00:27:04.443Z,95664.88
2019-04-20T00:29:22.714Z,95662.70
2019-04-20T00:31:45.797Z,95666.44
2019-04-20T00:34:12.177Z,95675.78
2019-04-20T00:36:34.908Z,95676.98
2019-04-20T00:39:07.606Z,95678.63
2019-04-20T00:41:44.117Z,95670.06
2019-04-20T00:44:12.189Z,95653.34
2019-04-20T00:46:41.963Z,95663.00
2019-04-20T00:49:24.275Z,95669.14
2019-04-20T00:51:52.759Z,95672.73
2019-04-20T00:54:07.336Z,95658.13
2019-04-20T00:56:37.086Z,95647.47
2019-04-20T00:59:16.807Z,95650.34
2019-04-20T01:01:52.631Z,95655.56
2019-04-20T01:04:27.238Z,95652.55
2019-04-20T01:06:53.534Z,95650.47
2019-04-20T01:09:16.110Z,95659.09
2019-04-20T01:11:47.888Z,95659.98
2019-04-20T01:14:17.390Z,95656.39
2019-04-20T01:16:51.322Z,95653.32
2019-04-20T01:19:18.841Z,95648.09
2019-04-20T01:21:53.365Z,95639.30
2019-04-20T01:24:23.882Z,95645.31
2019-04-20T01:26:50.785Z,95641.81
2019-04-20T01:29:26.054Z,95650.59
2019-04-20T01:32:02.326Z,95660.58
2019-04-20T01:34:32.240Z,95655.87
2019-04-20T01:37:04.510Z,95651.88
2019-04-20T01:39:28.340Z,95648.48
2019-04-20T01:41:49.640Z,95647.97
2019-04-20T01:44:29.335Z,95645.31
2019-04-20T01:46:53.272Z,95642.14
2019-04-20T01:49:23.834Z,95642.91
2019-04-20T01:51:57.769Z,95643.00
2019-04-20T01:54:41.782Z,95636.62
2019-04-20T01:57:03.098Z,95636.53
2019-04-20T01:59:39.646Z,95629.88
2019-04-20T02:02:20.960Z,95625.87
2019-04-20T02:04:55.255Z,95631.16
2019-04-20T02:07:28.402Z,95628.25
2019-04-20T02:09:59.861Z,95630.81
2019-04-20T02:12:28.343Z,95621.78
2019-04-20T02:14:59.392Z,95623.30
2019-04-20T02:17:33.597Z,95628.25
2019-04-20T02:20:17.402Z,95629.88
2019-04-20T02:22:44.584Z,95626.20
2019-04-20T02:24:55.663Z,95630.98
2019-04-20T02:27:29.957Z,95630.90
2019-04-20T02:30:21.312Z,95630.03
2019-04-20T02:33:09.183Z,95624.58
2019-04-20T02:35:49.917Z,95626.71
2019-04-20T02:38:12.181Z,95624.06
2019-04-20T02:40:47.718Z,95620.83
2019-04-20T02:45:40.434Z,95619.69
2019-04-20T02:48:07.979Z,95618.08
2019-04-20T02:50:43.254Z,95614.91
2019-04-20T02:53:32.972Z,95609.91
2019-04-20T02:55:51.533Z,95612.81
2019-04-20T02:58:39.051Z,95608.55
2019-04-20T03:00:35.524Z,95610.17
2019-04-20T03:02:57.284Z,95610.17
2019-04-20T03:05:26.276Z,95610.86
2019-04-20T03:08:04.341Z,95606.77
2019-04-20T03:10:43.307Z,95608.13
2019-04-20T03:13:12.221Z,95612.14
2019-04-20T03:15:37.909Z,95608.80
2019-04-20T03:18:12.129Z,95612.81
2019-04-20T03:20:41.848Z,95606.13
2019-04-20T03:23:26.096Z,95611.54
2019-04-20T03:25:55.250Z,95613.41
2019-04-20T03:28:18.340Z,95615.38
2019-04-20T03:31:36.683Z,95608.95
2019-04-20T03:36:20.986Z,95627.66
2019-04-20T03:38:38.584Z,95623.66
2019-04-20T03:41:00.679Z,95615.46
2019-04-20T03:43:18.122Z,95621.70
2019-04-20T03:45:54.276Z,95625.30
2019-04-20T03:48:34.588Z,95623.24
2019-04-20T03:51:07.456Z,95620.92
2019-04-20T03:53:43.389Z,95623.38
2019-04-20T03:56:35.243Z,95624.51
2019-04-20T03:58:55.510Z,95629.20
2019-04-20T04:01:57.130Z,95625.43
2019-04-20T04:04:16.893Z,95634.22
2019-04-20T04:06:34.031Z,95633.13
2019-04-20T04:09:10.284Z,95640.19
2019-04-20T04:11:38.086Z,95644.09
2019-04-20T04:13:56.643Z,95649.92
2019-04-20T04:16:32.903Z,95650.87
2019-04-20T04:19:07.536Z,95647.01
2019-04-20T04:21:42.283Z,95646.82
2019-04-20T04:24:09.470Z,95651.27
2019-04-20T04:26:45.598Z,95655.01
2019-04-20T04:29:22.729Z,95652.95
2019-04-20T04:31:57.769Z,95650.98
2019-04-20T04:34:20.675Z,95653.94
2019-04-20T04:36:53.747Z,95659.14
2019-04-20T04:39:22.868Z,95660.14
2019-04-20T04:41:58.025Z,95671.13
2019-04-20T04:44:14.687Z,95670.43
2019-04-20T04:46:33.938Z,95666.16
2019-04-20T04:49:09.579Z,95664.55
2019-04-20T04:51:42.685Z,95669.83
2019-04-20T04:54:13.848Z,95667.34
2019-04-20T04:56:33.691Z,95677.68
2019-04-20T04:59:02.451Z,95672.91
2019-04-20T05:01:33.947Z,95669.36
2019-04-20T05:04:22.782Z,95672.40
2019-04-20T05:06:44.993Z,95682.39
2019-04-20T05:09:06.054Z,95676.73
2019-04-20T05:11:32.544Z,95680.58
2019-04-20T05:14:06.759Z,95670.47
2019-04-20T05:16:55.191Z,95673.65
2019-04-20T05:19:26.322Z,95675.63
2019-04-20T05:22:03.941Z,95673.53
2019-04-20T05:24:25.522Z,95674.63
2019-04-20T05:27:08.731Z,95686.42
2019-04-20T05:29:19.708Z,95682.31
2019-04-20T05:31:51.798Z,95688.42
2019-04-20T05:34:40.027Z,95692.23
2019-04-20T05:37:03.648Z,95695.19
2019-04-20T05:39:38.261Z,95700.33
2019-04-20T05:42:03.019Z,95699.92
2019-04-20T05:44:39.717Z,95707.27
2019-04-20T05:47:06.874Z,95705.47
2019-04-20T05:49:34.779Z,95716.20
2019-04-20T05:52:18.752Z,95710.48
2019-04-20T05:54:39.168Z,95709.72
2019-04-20T05:57:14.453Z,95715.86
2019-04-20T05:59:40.925Z,95711.13
2019-04-20T06:02:11.332Z,95706.66
2019-04-20T06:04:54.603Z,95721.30
2019-04-20T06:07:11.312Z,95716.56
2019-04-20T06:09:42.970Z,95720.38
2019-04-20T06:12:27.350Z,95717.86
2019-04-20T06:14:53.624Z,95720.62
2019-04-20T06:17:31.450Z,95718.13
2019-04-20T06:20:06.164Z,95718.02
2019-04-20T06:22:58.574Z,95722.67
2019-04-20T06:25:31.567Z,95720.16
2019-04-20T06:27:45.106Z,95719.68
2019-04-20T06:30:11.078Z,95726.32
2019-04-20T06:33:34.627Z,95732.92
2019-04-20T06:36:07.816Z,95722.42
2019-04-20T06:38:44.687Z,95723.95
2019-04-20T06:41:13.984Z,95729.94
2019-04-20T06:43:30.411Z,95733.47
2019-04-20T06:46:01.985Z,95746.22
2019-04-20T06:48:32.016Z,95738.53
2019-04-20T06:50:53.067Z,95741.42
2019-04-20T06:56:06.726Z,95752.36
2019-04-20T06:58:43.792Z,95757.55
2019-04-20T07:01:04.173Z,95751.83
2019-04-20T07:03:49.379Z,95760.40
2019-04-20T07:06:22.988Z,95757.03
2019-04-20T07:08:58.688Z,95756.70
2019-04-20T07:11:04.703Z,95763.81
2019-04-20T07:13:27.670Z,95753.73
2019-04-20T07:15:58.244Z,95765.53
2019-04-20T07:18:43.523Z,95768.69
2019-04-20T07:21:16.083Z,95773.98
2019-04-20T07:23:41.884Z,95771.84
2019-04-20T07:26:16.911Z,95795.64
2019-04-20T07:28:47.320Z,95784.09
2019-04-20T07:31:06.786Z,95770.21
2019-04-20T07:33:56.813Z,95775.98
2019-04-20T07:36:22.657Z,95775.69
2019-04-20T07:38:51.881Z,95795.67
2019-04-20T07:41:20.515Z,95782.48
2019-04-20T07:43:57.106Z,95791.98
2019-04-20T07:46:23.828Z,95795.05
2019-04-20T07:48:42.235Z,95806.47
2019-04-20T07:51:05.848Z,95787.44
2019-04-20T07:53:36.352Z,95789.22
2019-04-20T07:56:20.713Z,95786.66
2019-04-20T07:58:35.763Z,95788.09
2019-04-20T08:01:38.745Z,95794.89
2019-04-20T08:04:07.750Z,95787.20
2019-04-20T08:06:35.338Z,95791.00
2019-04-20T08:09:10.637Z,95799.49
2019-04-20T08:11:48.727Z,95795.00
2019-04-20T08:14:18.204Z,95790.42
2019-04-20T08:16:58.695Z,95796.67
2019-04-20T08:19:16.310Z,95786.44
2019-04-20T08:21:47.480Z,95791.09
2019-04-20T08:24:20.141Z,95785.14
2019-04-20T08:26:34.422Z,95779.76
2019-04-20T08:29:05.145Z,95784.50
2019-04-20T08:32:10.373Z,95789.72
2019-04-20T08:34:41.890Z,95783.39
2019-04-20T08:37:09.860Z,95778.78
2019-04-20T08:39:55.876Z,95781.69
2019-04-20T08:42:13.028Z,95794.75
2019-04-20T08:45:00.052Z,95781.86
2019-04-20T08:47:27.815Z,95782.36
2019-04-20T08:50:16.221Z,95781.79
2019-04-20T08:53:06.927Z,95791.73
2019-04-20T08:55:10.560Z,95783.21
2019-04-20T08:57:24.702Z,95802.90
2019-04-20T08:59:54.390Z,95783.38
2019-04-20T09:02:24.035Z,95780.99
2019-04-20T09:05:00.584Z,95809.47
2019-04-20T09:07:26.749Z,95789.77
2019-04-20T09:10:16.422Z,95795.23
2019-04-20T09:12:40.589Z,95800.35
2019-04-20T09:14:55.431Z,95794.55
2019-04-20T09:17:41.043Z,95795.80
2019-04-20T09:20:08.367Z,95804.54
2019-04-20T09:22:48.204Z,95779.91
2019-04-20T09:25:48.452Z,95789.13
2019-04-20T09:27:50.183Z,95786.31
2019-04-20T09:30:24.287Z,95786.56
2019-04-20T09:33:14.360Z,95790.16
2019-04-20T09:35:45.875Z,95781.79
2019-04-20T09:38:12.023Z,95787.27
2019-04-20T09:40:46.060Z,95784.69
2019-04-20T09:43:00.298Z,95783.47
2019-04-20T09:45:37.487Z,95777.66
2019-04-20T09:48:02.128Z,95772.91
2019-04-20T09:50:49.621Z,95776.88
2019-04-20T09:53:17.089Z,95780.67
2019-04-20T09:55:50.438Z,95772.91
2019-04-20T09:58:15.520Z,95789.07
2019-04-20T10:01:00.676Z,95783.61
2019-04-20T10:03:14.549Z,95787.91
2019-04-20T10:05:43.500Z,95792.44
2019-04-20T10:08:13.518Z,95796.47
2019-04-20T10:10:45.385Z,95789.14
2019-04-20T10:13:13.298Z,95799.95
2019-04-20T10:15:42.015Z,95800.19
2019-04-20T10:18:11.957Z,95808.47
2019-04-20T10:20:43.133Z,95809.66
2019-04-20T10:23:12.438Z,95813.68
2019-04-20T10:25:42.517Z,95803.92
2019-04-20T10:28:11.764Z,95821.38
2019-04-20T10:30:40.887Z,95802.25
2019-04-20T10:33:09.995Z,95818.42
2019-04-20T10:35:39.446Z,95817.25
2019-04-20T10:38:09.968Z,95806.77
2019-04-20T10:40:51.126Z,95831.66
2019-04-20T10:43:10.202Z,95813.86
2019-04-20T10:45:39.240Z,95823.03
2019-04-20T10:48:08.953Z,95817.03
2019-04-20T10:50:38.937Z,95814.77
2019-04-20T10:53:08.018Z,95827.78
2019-04-20T10:55:37.754Z,95825.01
2019-04-20T10:58:07.359Z,95821.92
2019-04-20T11:00:46.421Z,95816.31
2019-04-20T11:03:15.927Z,95829.39
2019-04-20T11:05:44.953Z,95822.48
2019-04-20T11:08:14.862Z,95831.80
2019-04-20T11:10:55.462Z,95812.25
2019-04-20T11:13:15.195Z,95826.05
2019-04-20T11:15:44.393Z,95827.55
2019-04-20T11:18:13.429Z,95818.13
2019-04-20T11:20:43.512Z,95830.66
2019-04-20T11:23:12.450Z,95827.73
2019-04-20T11:25:42.142Z,95843.84
2019-04-20T11:28:12.256Z,95842.20
2019-04-20T11:30:41.053Z,95832.55
2019-04-20T11:33:09.927Z,95842.27
2019-04-20T11:35:41.644Z,95830.88
2019-04-20T11:38:12.478Z,95820.69
2019-04-20T11:40:39.462Z,95821.94
2019-04-20T11:43:08.089Z,95841.66
2019-04-20T11:45:38.169Z,95828.84
2019-04-20T11:48:07.471Z,95833.83
2019-04-20T11:50:36.116Z,95830.84
2019-04-20T11:53:05.570Z,95832.36
2019-04-20T11:55:34.585Z,95828.30
2019-04-20T11:58:03.776Z,95830.03
2019-04-20T12:00:46.025Z,95821.34
2019-04-20T12:03:25.042Z,95832.45
2019-04-20T12:05:53.217Z,95827.33
2019-04-20T12:08:18.485Z,95837.53
2019-04-20T12:10:50.315Z,95835.95
2019-04-20T12:13:18.486Z,95849.66
2019-04-20T12:15:47.671Z,95837.72
2019-04-20T12:18:17.812Z,95836.31
2019-04-20T12:20:47.136Z,95832.69
2019-04-20T12:23:16.090Z,95847.81
2019-04-20T12:25:46.197Z,95833.98
2019-04-20T12:28:15.757Z,95835.52
2019-04-20T12:30:45.654Z,95826.47
2019-04-20T12:33:15.625Z,95821.45
2019-04-20T12:35:44.534Z,95831.44
2019-04-20T12:38:13.264Z,95818.70
2019-04-20T12:40:42.060Z,95836.60
2019-04-20T12:43:11.119Z,95821.73
2019-04-20T12:45:40.045Z,95840.14
2019-04-20T12:48:08.696Z,95835.53
2019-04-20T12:50:37.529Z,95833.73
2019-04-20T12:53:06.504Z,95840.03
2019-04-20T12:55:35.156Z,95830.42
2019-04-20T12:58:05.745Z,95831.00
2019-04-20T13:00:43.709Z,95814.14
2019-04-20T13:03:13.748Z,95816.79
2019-04-20T13:05:43.597Z,95820.11
2019-04-20T13:08:13.801Z,95822.75
2019-04-20T13:10:44.877Z,95815.52
2019-04-20T13:13:28.134Z,95819.63
2019-04-20T13:16:04.707Z,95824.68
2019-04-20T13:18:35.072Z,95827.30
2019-04-20T13:21:04.826Z,95828.56
2019-04-20T13:23:35.053Z,95827.16
2019-04-20T13:26:05.831Z,95823.68
2019-04-20T13:28:34.719Z,95820.64
2019-04-20T13:31:04.043Z,95821.09
2019-04-20T13:33:33.541Z,95817.22
2019-04-20T13:36:02.347Z,95823.56
2019-04-20T13:38:32.045Z,95817.64
2019-04-20T13:41:01.915Z,95828.64
2019-04-20T13:43:32.001Z,95821.20
2019-04-20T13:46:00.877Z,95824.24
2019-04-20T13:48:30.996Z,95823.73
2019-04-20T13:51:00.159Z,95824.67
2019-04-20T13:53:29.719Z,95819.15
2019-04-20T13:55:59.230Z,95823.03
2019-04-20T13:58:45.678Z,95837.06
2019-04-20T14:01:22.952Z,95823.86
2019-04-20T14:04:05.429Z,95821.27
2019-04-20T14:06:35.288Z,95821.16
2019-04-20T14:09:05.734Z,95824.67
2019-04-20T14:11:35.631Z,95809.54
2019-04-20T14:14:06.948Z,95816.66
2019-04-20T14:16:35.256Z,95824.03
2019-04-20T14:19:05.184Z,95813.60
2019-04-20T14:21:34.287Z,95817.45
2019-04-20T14:24:04.275Z,95816.25
2019-04-20T14:26:36.103Z,95816.55
2019-04-20T14:29:05.060Z,95813.62
2019-04-20T14:31:33.980Z,95820.14
2019-04-20T14:34:04.751Z,95814.73
2019-04-20T14:36:34.866Z,95816.75
2019-04-20T14:39:06.474Z,95809.50
2019-04-20T14:41:36.035Z,95816.33
2019-04-20T14:44:05.797Z,95810.84
2019-04-20T14:46:35.764Z,95800.11
2019-04-20T14:49:04.978Z,95803.33
2019-04-20T14:51:33.715Z,95802.89
2019-04-20T14:54:03.343Z,95796.02
2019-04-20T14:56:33.522Z,95805.99
2019-04-20T14:59:07.559Z,95809.77
2019-04-20T15:01:40.922Z,95803.02
2019-04-20T15:04:14.905Z,95801.65
2019-04-20T15:06:42.130Z,95812.43
2019-04-20T15:09:12.747Z,95808.66
2019-04-20T15:11:44.279Z,95814.36
2019-04-20T15:14:11.930Z,95811.56
2019-04-20T15:16:40.529Z,95803.46
2019-04-20T15:19:11.803Z,95810.88
2019-04-20T15:21:42.222Z,95799.55
2019-04-20T15:24:11.373Z,95807.49
2019-04-20T15:26:40.449Z,95813.12
2019-04-20T15:29:10.464Z,95819.84
2019-04-20T15:31:39.354Z,95813.23
2019-04-20T15:34:08.807Z,95817.28
2019-04-20T15:36:38.151Z,95824.24
2019-04-20T15:39:09.387Z,95815.61
2019-04-20T15:41:39.134Z,95816.68
2019-04-20T15:44:09.174Z,95816.77
2019-04-20T15:46:38.833Z,95819.64
2019-04-20T15:49:08.369Z,95820.32
2019-04-20T15:51:37.578Z,95818.30
2019-04-20T15:54:07.515Z,95813.37
2019-04-20T15:56:37.616Z,95817.05
2019-04-20T15:59:06.481Z,95817.95
2019-04-20T16:01:36.818Z,95817.59
2019-04-20T16:04:11.749Z,95820.23
2019-04-20T16:06:41.195Z,95821.02
2019-04-20T16:09:10.635Z,95828.30
2019-04-20T16:11:39.317Z,95819.34
2019-04-20T16:14:09.078Z,95810.99
2019-04-20T16:16:37.849Z,95815.17
2019-04-20T16:19:15.914Z,95805.77
2019-04-20T16:21:37.549Z,95820.50
2019-04-20T16:24:08.859Z,95820.84
2019-04-20T16:26:39.902Z,95815.14
2019-04-20T16:29:08.582Z,95807.63
2019-04-20T16:31:38.425Z,95806.99
2019-04-20T16:34:07.709Z,95812.56
2019-04-20T16:36:36.702Z,95816.45
2019-04-20T16:39:09.310Z,95805.56
2019-04-20T16:41:38.202Z,95813.31
2019-04-20T16:44:07.262Z,95816.85
2019-04-20T16:46:36.352Z,95806.31
2019-04-20T16:49:05.286Z,95806.73
2019-04-20T16:51:34.767Z,95812.11
2019-04-20T16:54:03.983Z,95809.77
2019-04-20T16:56:32.906Z,95810.19
2019-04-20T16:59:07.097Z,95818.94
2019-04-20T17:01:32.180Z,95811.13
2019-04-20T17:04:07.245Z,95815.19
2019-04-20T17:06:32.201Z,95814.98
2019-04-20T17:09:01.156Z,95812.55
2019-04-20T17:11:30.109Z,95817.39
2019-04-20T17:14:01.387Z,95814.59
2019-04-20T17:16:28.859Z,95819.41
2019-04-20T17:18:57.485Z,95816.59
2019-04-20T17:21:28.948Z,95819.20
2019-04-20T17:23:57.534Z,95824.89
2019-04-20T17:26:30.998Z,95819.23
2019-04-20T17:29:19.964Z,95824.50
2019-04-20T17:31:53.552Z,95830.31
2019-04-20T17:34:41.438Z,95829.39
2019-04-20T17:36:53.118Z,95831.46
2019-04-20T17:39:33.906Z,95834.13
2019-04-20T17:42:07.653Z,95834.65
2019-04-20T17:44:36.012Z,95837.91
2019-04-20T17:47:04.143Z,95839.91
2019-04-20T17:49:35.467Z,95838.71
2019-04-20T17:52:17.668Z,95838.95
2019-04-20T17:54:40.646Z,95844.81
2019-04-20T17:57:10.958Z,95840.91
2019-04-20T17:59:45.719Z,95844.93
2019-04-20T18:02:45.913Z,95845.03
2019-04-20T18:05:26.978Z,95850.94
2019-04-20T18:08:02.627Z,95855.64
2019-04-20T18:10:26.004Z,95858.57
2019-04-20T18:12:45.806Z,95860.38
2019-04-20T18:15:29.115Z,95861.77
2019-04-20T18:18:16.062Z,95863.45
2019-04-20T18:20:30.419Z,95864.59
2019-04-20T18:23:00.506Z,95871.80
2019-04-20T18:25:56.213Z,95870.06
2019-04-20T18:28:13.718Z,95879.81
2019-04-20T18:30:41.493Z,95872.47
2019-04-20T18:33:03.141Z,95869.05
2019-04-20T18:35:34.803Z,95877.72
2019-04-20T18:38:07.709Z,95881.89
2019-04-20T18:40:41.867Z,95885.75
2019-04-20T18:43:10.346Z,95886.94
2019-04-20T18:45:56.970Z,95891.89
2019-04-20T18:48:24.526Z,95883.41
2019-04-20T18:50:40.224Z,95893.23
2019-04-20T18:53:05.812Z,95893.63
2019-04-20T18:55:46.175Z,95889.86
2019-04-20T18:58:07.036Z,95887.80
2019-04-20T19:00:41.910Z,95882.41
2019-04-20T19:03:13.248Z,95884.97
2019-04-20T19:05:37.962Z,95887.66
2019-04-20T19:08:11.520Z,95882.27
2019-04-20T19:10:40.366Z,95891.25
2019-04-20T19:13:20.203Z,95882.72
2019-04-20T19:16:13.362Z,95885.09
2019-04-20T19:18:54.481Z,95889.26
2019-04-20T19:21:12.982Z,95886.27
2019-04-20T19:23:50.486Z,95885.97
2019-04-20T19:26:17.649Z,95884.09
2019-04-20T19:28:48.130Z,95887.81
2019-04-20T19:31:28.740Z,95883.64
2019-04-20T19:34:02.121Z,95890.47
2019-04-20T19:36:24.458Z,95884.56
2019-04-20T19:38:57.735Z,95884.64
2019-04-20T19:41:29.755Z,95884.89
2019-04-20T19:43:54.959Z,95886.66
2019-04-20T19:46:48.217Z,95886.22
2019-04-20T19:48:56.506Z,95884.55
2019-04-20T19:51:40.902Z,95887.91
2019-04-20T19:54:06.472Z,95886.35
2019-04-20T19:56:38.909Z,95885.47
2019-04-20T19:59:03.580Z,95882.21
2019-04-20T20:01:17.740Z,95885.48
2019-04-20T20:03:48.316Z,95886.97
2019-04-20T20:06:24.382Z,95884.83
2019-04-20T20:08:56.201Z,95881.69
2019-04-20T20:11:27.639Z,95885.05
2019-04-20T20:13:52.152Z,95879.41
2019-04-20T20:16:27.122Z,95883.88
2019-04-20T20:18:59.925Z,95879.41
2019-04-20T20:21:32.151Z,95885.53
2019-04-20T20:23:50.129Z,95884.64
2019-04-20T20:26:28.998Z,95881.70
2019-04-20T20:29:03.888Z,95876.31
2019-04-20T20:31:28.284Z,95879.16
2019-04-20T20:34:02.935Z,95880.45
2019-04-20T20:36:23.860Z,95888.33
2019-04-20T20:38:52.852Z,95883.64
2019-04-20T20:41:28.947Z,95887.37
2019-04-20T20:44:02.649Z,95887.44
2019-04-20T20:46:32.780Z,95892.09
2019-04-20T20:49:31.312Z,95885.16
2019-04-20T20:51:44.023Z,95887.82
2019-04-20T20:54:03.308Z,95889.44
2019-04-20T20:56:28.918Z,95883.33
2019-04-20T20:59:04.188Z,95883.79
2019-04-20T21:01:26.443Z,95882.24
2019-04-20T21:03:56.582Z,95873.78
2019-04-20T21:06:26.596Z,95875.07
2019-04-20T21:08:56.599Z,95875.72
2019-04-20T21:11:29.496Z,95872.22
2019-04-20T21:13:57.445Z,95874.04
2019-04-20T21:16:31.417Z,95875.98
2019-04-20T21:19:12.984Z,95876.83
2019-04-20T21:21:38.769Z,95875.70
2019-04-20T21:24:03.900Z,95872.84
2019-04-20T21:26:35.429Z,95882.47
2019-04-20T21:28:59.736Z,95879.69
2019-04-20T21:31:29.707Z,95883.54
2019-04-20T21:34:01.875Z,95878.67
2019-04-20T21:36:31.336Z,95884.55
2019-04-20T21:38:59.371Z,95878.38
2019-04-20T21:41:29.465Z,95877.51
2019-04-20T21:43:58.563Z,95883.34
2019-04-20T21:46:29.847Z,95875.16
2019-04-20T21:49:09.761Z,95857.11
2019-04-20T21:51:37.347Z,95877.44
2019-04-20T21:54:00.330Z,95872.89
2019-04-20T21:56:28.516Z,95874.53
2019-04-20T21:59:01.086Z,95873.83
2019-04-20T22:01:34.610Z,95868.08
2019-04-20T22:03:58.579Z,95869.64
2019-04-20T22:06:28.714Z,95874.34
2019-04-20T22:09:01.052Z,95867.22
2019-04-20T22:11:27.887Z,95868.63
2019-04-20T22:13:57.458Z,95874.88
2019-04-20T22:16:35.311Z,95872.89
2019-04-20T22:19:14.653Z,95868.04
2019-04-20T22:21:43.561Z,95867.22
2019-04-20T22:24:10.485Z,95872.34
2019-04-20T22:26:34.190Z,95868.30
2019-04-20T22:28:58.316Z,95863.88
2019-04-20T22:31:26.977Z,95858.62
2019-04-20T22:33:56.365Z,95858.09
2019-04-20T22:36:34.112Z,95858.57
2019-04-20T22:39:15.670Z,95860.35
2019-04-20T22:41:53.601Z,95858.61
2019-04-20T22:44:20.383Z,95858.64
2019-04-20T22:46:47.637Z,95859.35
2019-04-20T22:49:33.611Z,95847.70
2019-04-20T22:51:58.181Z,95851.03
2019-04-20T22:54:35.613Z,95852.39
2019-04-20T22:56:58.161Z,95847.77
2019-04-20T22:59:22.608Z,95854.23
2019-04-20T23:01:56.603Z,95853.84
2019-04-20T23:04:19.334Z,95852.33
2019-04-20T23:06:50.248Z,95848.99
2019-04-20T23:09:18.810Z,95843.75
2019-04-20T23:11:47.568Z,95840.03
2019-04-20T23:14:16.400Z,95844.89
2019-04-20T23:16:49.193Z,95838.67
2019-04-20T23:19:28.200Z,95841.42
2019-04-20T23:21:52.113Z,95837.83
2019-04-20T23:24:17.098Z,95824.50
2019-04-20T23:26:47.624Z,95823.53
2019-04-20T23:29:17.505Z,95824.02
2019-04-20T23:31:52.310Z,95822.23
2019-04-20T23:34:21.828Z,95814.28
2019-04-20T23:36:50.201Z,95814.48
2019-04-20T23:39:17.160Z,95812.56
2019-04-20T23:41:53.571Z,95816.03
2019-04-20T23:44:18.991Z,95817.55
2019-04-20T23:47:09.747Z,95810.37
2019-04-20T23:49:53.384Z,95813.34
2019-04-20T23:52:32.521Z,95812.60
2019-04-20T23:54:37.258Z,95804.35
2019-04-20T23:57:05.929Z,95808.45
2019-04-20T23:59:40.392Z,95812.95
